Time;durP1;ratioP1;P1;durP2;ratioP2;P2;SDS_P1;SDS_P2;PMS_P1;PMS_P2;Temp;Humidity;BMP_temperature;BMP_pressure;BME280_temperature;BME280_humidity;BME280_pressure;Samples;Min_cycle;Max_cycle;Signal;HPM_P1;HPM_P2
2021/03/11 00:01:10;;;;;;;20.13;16.33;;;5.10;99.90;;;;;;5032172;28;20244;-40
2021/03/11 00:03:37;;;;;;;23.73;18.38;;;5.20;99.90;;;;;;5031789;28;20326;-39
2021/03/11 00:06:05;;;;;;;20.48;15.40;;;5.10;99.90;;;;;;5031940;28;20244;-40
2021/03/11 00:08:32;;;;;;;20.23;15.52;;;5.10;99.90;;;;;;5032046;28;20232;-40
2021/03/11 00:11:00;;;;;;;20.30;15.57;;;5.10;99.90;;;;;;5031988;28;20303;-40
2021/03/11 00:13:27;;;;;;;20.92;15.23;;;5.10;99.90;;;;;;5032155;28;20212;-40
2021/03/11 00:15:54;;;;;;;17.92;14.13;;;5.10;99.90;;;;;;5034088;28;20212;-40
2021/03/11 00:18:22;;;;;;;19.88;15.88;;;5.00;99.90;;;;;;5035766;28;20236;-39
2021/03/11 00:20:49;;;;;;;20.95;17.75;;;5.00;99.90;;;;;;5035950;28;20229;-40
2021/03/11 00:23:32;;;;;;;16.30;13.40;;;5.00;99.90;;;;;;5036031;28;20213;-40
2021/03/11 00:26:00;;;;;;;23.55;17.38;;;5.00;99.90;;;;;;5035739;28;20667;-39
2021/03/11 00:28:27;;;;;;;16.70;13.77;;;4.90;99.90;;;;;;5035864;28;20247;-38
2021/03/11 00:30:54;;;;;;;17.85;15.00;;;4.90;99.90;;;;;;5035642;28;20232;-39
2021/03/11 00:33:21;;;;;;;20.13;14.40;;;5.00;99.90;;;;;;5035386;28;20297;-39
2021/03/11 00:35:48;;;;;;;16.08;13.43;;;5.00;99.90;;;;;;5035697;28;20691;-39
2021/03/11 00:38:15;;;;;;;16.95;13.70;;;5.00;99.90;;;;;;5035667;28;20243;-40
2021/03/11 00:40:42;;;;;;;16.52;14.35;;;5.00;99.90;;;;;;5035507;28;20259;-40
2021/03/11 00:43:12;;;;;;;17.90;13.68;;;5.00;99.90;;;;;;5035450;28;20319;-39
2021/03/11 00:45:39;;;;;;;18.33;15.18;;;5.10;99.90;;;;;;5035334;28;20217;-41
2021/03/11 00:48:07;;;;;;;17.30;14.70;;;5.00;99.90;;;;;;5035583;28;20209;-40
2021/03/11 00:50:34;;;;;;;17.80;14.45;;;5.00;99.90;;;;;;5035296;28;20666;-40
2021/03/11 00:53:01;;;;;;;16.00;13.10;;;5.00;99.90;;;;;;5034950;28;20675;-40
2021/03/11 00:55:28;;;;;;;16.02;12.45;;;5.10;99.90;;;;;;5035065;28;20216;-40
2021/03/11 00:57:55;;;;;;;17.23;12.88;;;5.10;99.90;;;;;;5035373;28;20287;-39
2021/03/11 01:00:25;;;;;;;15.27;12.93;;;5.20;99.90;;;;;;5034965;28;20229;-40
2021/03/11 01:02:52;;;;;;;15.45;13.00;;;5.20;99.90;;;;;;5035247;28;20297;-38
2021/03/11 01:05:21;;;;;;;16.92;13.35;;;5.20;99.90;;;;;;5033935;28;20251;-39
2021/03/11 01:07:48;;;;;;;15.40;12.50;;;5.20;99.90;;;;;;5033704;28;20299;-38
2021/03/11 01:10:15;;;;;;;15.38;12.90;;;5.20;99.90;;;;;;5033678;28;20611;-39
2021/03/11 01:12:42;;;;;;;15.35;12.60;;;5.20;99.90;;;;;;5033577;28;20291;-39
2021/03/11 01:15:10;;;;;;;15.13;12.02;;;5.20;99.90;;;;;;5033486;28;20659;-39
2021/03/11 01:17:39;;;;;;;15.60;11.52;;;5.20;99.90;;;;;;5033611;28;20287;-39
2021/03/11 01:20:09;;;;;;;14.00;12.15;;;5.20;99.90;;;;;;5033432;28;20279;-39
2021/03/11 01:22:36;;;;;;;15.18;12.40;;;5.20;99.90;;;;;;5033478;28;20271;-39
2021/03/11 01:25:05;;;;;;;16.77;12.73;;;5.20;99.90;;;;;;5033440;28;20566;-40
2021/03/11 01:27:32;;;;;;;13.70;10.57;;;5.20;99.90;;;;;;5032916;28;20663;-38
2021/03/11 01:29:59;;;;;;;12.65;10.15;;;5.30;99.90;;;;;;5033426;28;20247;-39
2021/03/11 01:32:27;;;;;;;12.10;9.88;;;5.30;99.90;;;;;;5033362;28;20259;-43
2021/03/11 01:34:55;;;;;;;10.80;9.23;;;5.30;99.60;;;;;;5033628;28;20236;-38
2021/03/11 01:37:22;;;;;;;10.63;9.63;;;5.30;99.50;;;;;;5033752;28;20242;-40
2021/03/11 01:39:49;;;;;;;11.40;8.82;;;5.30;99.30;;;;;;5033234;28;20386;-39
2021/03/11 01:42:17;;;;;;;11.50;8.95;;;5.30;99.30;;;;;;5033260;28;20671;-39
2021/03/11 01:44:44;;;;;;;10.50;8.88;;;5.40;99.20;;;;;;5033428;28;20216;-38
2021/03/11 01:47:11;;;;;;;11.90;8.82;;;5.40;99.00;;;;;;5033446;28;20212;-39
2021/03/11 01:49:38;;;;;;;11.32;9.95;;;5.50;98.90;;;;;;5033006;28;20294;-39
2021/03/11 01:52:06;;;;;;;12.15;9.13;;;5.50;98.80;;;;;;5033064;28;20213;-39
2021/03/11 01:54:38;;;;;;;10.55;9.48;;;5.50;98.70;;;;;;5033001;28;20713;-39
2021/03/11 01:57:06;;;;;;;10.73;9.18;;;5.50;98.70;;;;;;5033179;28;20209;-39
2021/03/11 01:59:33;;;;;;;12.77;9.50;;;5.40;98.60;;;;;;5032804;28;20320;-39
2021/03/11 02:02:00;;;;;;;11.52;9.80;;;5.50;98.50;;;;;;5032956;28;20307;-38
2021/03/11 02:04:27;;;;;;;11.10;9.75;;;5.50;98.40;;;;;;5013296;28;578176;-39
2021/03/11 02:06:54;;;;;;;11.80;10.60;;;5.50;98.30;;;;;;5033759;28;20733;-39
2021/03/11 02:09:22;;;;;;;10.93;9.82;;;5.50;98.20;;;;;;5033844;28;20205;-39
2021/03/11 02:11:58;;;;;;;12.18;10.43;;;5.50;98.20;;;;;;5033886;28;20214;-39
2021/03/11 02:14:31;;;;;;;11.93;10.13;;;5.50;98.10;;;;;;5033868;28;20211;-38
2021/03/11 02:17:02;;;;;;;11.82;9.77;;;5.50;98.10;;;;;;5033704;28;20300;-39
2021/03/11 02:19:46;;;;;;;12.20;10.90;;;5.50;98.10;;;;;;5033445;28;20707;-38
2021/03/11 02:22:21;;;;;;;12.35;9.30;;;5.40;98.10;;;;;;5033856;28;20208;-39
2021/03/11 02:25:06;;;;;;;13.23;10.50;;;5.50;98.20;;;;;;5033651;28;20251;-39
2021/03/11 02:27:40;;;;;;;11.27;9.38;;;5.50;98.10;;;;;;5033505;28;20375;-39
2021/03/11 02:30:09;;;;;;;12.98;10.50;;;5.50;98.10;;;;;;5033452;28;20210;-39
2021/03/11 02:32:38;;;;;;;13.32;10.80;;;5.60;98.10;;;;;;5033560;28;20295;-38
2021/03/11 02:35:08;;;;;;;14.18;10.05;;;5.50;98.10;;;;;;5033674;28;20204;-39
2021/03/11 02:37:40;;;;;;;11.75;9.40;;;5.60;98.00;;;;;;5032572;28;20212;-39
2021/03/11 02:40:11;;;;;;;10.65;9.13;;;5.50;98.00;;;;;;5033093;28;20228;-38
2021/03/11 02:42:40;;;;;;;11.35;10.05;;;5.50;98.00;;;;;;5033453;28;20300;-39
2021/03/11 02:45:10;;;;;;;10.50;9.32;;;5.50;98.10;;;;;;5033305;28;20209;-39
2021/03/11 02:47:39;;;;;;;11.95;9.93;;;5.50;98.10;;;;;;5033216;28;20278;-39
2021/03/11 02:50:07;;;;;;;10.80;9.70;;;5.50;98.10;;;;;;5032918;28;20212;-39
2021/03/11 02:52:35;;;;;;;10.70;9.25;;;5.50;98.10;;;;;;5033082;28;20291;-40
2021/03/11 02:55:20;;;;;;;10.80;8.73;;;5.50;98.00;;;;;;5032965;28;20240;-40
2021/03/11 02:57:49;;;;;;;10.65;9.02;;;5.60;98.00;;;;;;5032641;28;20303;-39
2021/03/11 03:00:19;;;;;;;9.57;8.48;;;5.60;97.70;;;;;;5032718;28;20225;-39
2021/03/11 03:06:30;;;;;;;11.23;8.63;;;5.70;97.50;;;;;;4523570;28;20594;-39
2021/03/11 03:08:57;;;;;;;12.43;8.80;;;5.70;97.40;;;;;;5032861;28;20731;-38
2021/03/11 03:11:24;;;;;;;8.70;7.82;;;5.70;97.40;;;;;;5032582;28;20208;-38
2021/03/11 03:13:53;;;;;;;9.30;8.02;;;5.80;97.40;;;;;;5032758;28;20303;-38
2021/03/11 03:16:21;;;;;;;11.63;7.97;;;5.80;97.30;;;;;;5032797;28;20299;-39
2021/03/11 03:18:49;;;;;;;12.55;7.40;;;5.90;97.20;;;;;;5032469;28;20676;-39
2021/03/11 03:21:16;;;;;;;10.02;7.03;;;5.90;97.10;;;;;;5032571;28;20327;-39
2021/03/11 03:23:44;;;;;;;8.85;7.95;;;6.00;97.30;;;;;;5032487;28;20690;-39
2021/03/11 03:26:11;;;;;;;9.90;7.95;;;6.00;96.80;;;;;;5032326;28;20215;-39
2021/03/11 03:28:38;;;;;;;7.50;6.72;;;6.00;97.20;;;;;;5032293;28;20250;-39
2021/03/11 03:31:06;;;;;;;8.25;7.40;;;6.10;96.80;;;;;;5032498;28;20303;-38
2021/03/11 03:33:34;;;;;;;8.65;6.90;;;6.10;96.70;;;;;;5032449;28;20205;-39
2021/03/11 03:36:01;;;;;;;9.15;7.60;;;6.20;96.60;;;;;;5032345;28;20209;-38
2021/03/11 03:38:28;;;;;;;10.15;7.75;;;6.30;96.50;;;;;;5032211;28;20643;-38
2021/03/11 03:40:59;;;;;;;9.93;7.53;;;6.30;96.40;;;;;;5032158;28;20295;-38
2021/03/11 03:43:30;;;;;;;11.45;8.77;;;6.30;96.30;;;;;;5032712;28;20224;-38
2021/03/11 03:46:02;;;;;;;9.13;8.00;;;6.30;96.30;;;;;;5032317;28;20300;-39
2021/03/11 03:48:43;;;;;;;10.27;8.15;;;6.30;96.50;;;;;;5032117;28;20577;-39
2021/03/11 03:51:11;;;;;;;12.55;8.35;;;6.40;96.00;;;;;;5032092;28;20207;-39
2021/03/11 03:53:42;;;;;;;11.32;7.97;;;6.30;96.00;;;;;;5032153;28;20564;-39
2021/03/11 03:56:15;;;;;;;11.93;7.80;;;6.40;95.90;;;;;;5032007;28;20745;-39
2021/03/11 03:58:44;;;;;;;8.07;7.13;;;6.40;95.80;;;;;;5032389;28;20642;-40
2021/03/11 04:01:12;;;;;;;9.57;7.35;;;6.50;95.80;;;;;;5032306;28;20232;-40
2021/03/11 04:03:39;;;;;;;8.20;7.40;;;6.50;95.70;;;;;;5032281;28;20296;-39
2021/03/11 04:06:10;;;;;;;10.07;7.93;;;6.50;95.60;;;;;;5031915;28;20331;-39
2021/03/11 04:08:40;;;;;;;8.20;6.78;;;6.60;95.60;;;;;;5032186;28;20213;-39
2021/03/11 04:11:07;;;;;;;8.18;7.32;;;6.60;95.80;;;;;;5031979;28;20259;-39
2021/03/11 04:13:35;;;;;;;12.30;7.57;;;6.60;95.50;;;;;;5031804;28;20212;-37
2021/03/11 04:16:03;;;;;;;9.93;7.55;;;6.60;95.40;;;;;;5031753;28;20251;-37
2021/03/11 04:18:30;;;;;;;9.82;7.88;;;6.70;95.30;;;;;;5032020;28;20745;-41
2021/03/11 04:20:58;;;;;;;9.30;7.32;;;6.70;95.20;;;;;;5031694;28;20224;-40
2021/03/11 04:23:26;;;;;;;9.65;7.68;;;6.80;95.10;;;;;;5032048;28;20239;-39
2021/03/11 04:25:54;;;;;;;8.60;7.40;;;6.80;95.00;;;;;;5031868;28;20215;-39
2021/03/11 04:28:21;;;;;;;8.75;6.88;;;6.80;94.90;;;;;;5031646;28;20742;-40
2021/03/11 04:30:48;;;;;;;12.93;7.95;;;6.80;94.80;;;;;;5031562;28;20304;-37
2021/03/11 04:33:16;;;;;;;10.10;7.28;;;6.90;94.70;;;;;;5031578;28;20303;-38
2021/03/11 04:35:43;;;;;;;13.07;7.55;;;6.90;94.60;;;;;;5031769;28;20235;-40
2021/03/11 04:38:10;;;;;;;10.52;8.63;;;6.90;94.50;;;;;;5031525;28;20212;-38
2021/03/11 04:40:38;;;;;;;9.63;7.82;;;6.90;94.40;;;;;;5031557;28;20316;-39
2021/03/11 04:43:06;;;;;;;9.20;7.45;;;7.00;94.30;;;;;;5031433;28;20205;-39
2021/03/11 04:45:33;;;;;;;9.50;7.38;;;7.00;94.20;;;;;;5031684;28;20235;-38
2021/03/11 04:48:02;;;;;;;12.27;8.75;;;7.00;94.10;;;;;;5031703;28;20213;-38
2021/03/11 04:50:30;;;;;;;9.07;7.88;;;7.00;94.00;;;;;;5031553;28;20200;-38
2021/03/11 04:52:58;;;;;;;9.30;7.07;;;7.10;94.00;;;;;;5031599;28;20310;-39
2021/03/11 04:55:26;;;;;;;11.35;7.85;;;7.10;93.80;;;;;;5031360;28;20228;-38
2021/03/11 04:57:54;;;;;;;8.77;7.78;;;7.10;93.60;;;;;;5031414;28;20215;-38
2021/03/11 05:00:22;;;;;;;12.10;7.82;;;7.10;93.80;;;;;;5031338;28;20260;-39
2021/03/11 05:02:50;;;;;;;10.75;7.57;;;7.20;93.40;;;;;;5034658;28;20295;-39
2021/03/11 05:05:30;;;;;;;15.63;11.43;;;7.30;93.30;;;;;;5035172;28;20375;-39
2021/03/11 05:07:57;;;;;;;8.60;6.75;;;7.30;93.10;;;;;;4995569;28;20209;-37
2021/03/11 05:10:24;;;;;;;10.20;7.78;;;7.40;93.00;;;;;;4995392;28;20242;-38
2021/03/11 05:12:51;;;;;;;10.27;7.97;;;7.40;92.90;;;;;;4995532;28;20610;-38
2021/03/11 05:15:19;;;;;;;14.50;10.63;;;7.40;92.80;;;;;;4995351;28;20309;-39
2021/03/11 05:17:46;;;;;;;11.77;9.07;;;7.40;92.70;;;;;;4995777;28;20316;-40
2021/03/11 05:20:14;;;;;;;10.23;7.70;;;7.40;92.80;;;;;;4995305;28;20799;-40
2021/03/11 05:22:41;;;;;;;11.15;9.15;;;7.50;92.40;;;;;;4995259;28;20213;-40
2021/03/11 05:25:11;;;;;;;17.83;13.20;;;7.50;92.70;;;;;;4995605;28;20222;-40
2021/03/11 05:27:39;;;;;;;23.13;20.65;;;7.60;92.30;;;;;;4995239;28;20245;-40
2021/03/11 05:30:11;;;;;;;14.57;11.75;;;7.60;92.30;;;;;;4995903;28;20209;-39
2021/03/11 05:32:39;;;;;;;11.55;8.82;;;7.60;92.20;;;;;;4995448;28;20261;-39
2021/03/11 05:35:07;;;;;;;13.52;8.80;;;7.70;92.10;;;;;;4994972;28;20213;-39
2021/03/11 05:37:38;;;;;;;14.57;10.48;;;7.70;91.90;;;;;;4995261;28;20360;-38
2021/03/11 05:40:08;;;;;;;15.15;10.07;;;7.80;91.50;;;;;;4995006;28;20226;-39
2021/03/11 05:42:37;;;;;;;8.82;7.07;;;7.80;91.20;;;;;;4995114;28;20237;-39
2021/03/11 05:45:06;;;;;;;9.55;7.10;;;7.80;91.00;;;;;;4994843;28;20319;-39
2021/03/11 05:47:35;;;;;;;11.52;7.00;;;7.90;90.60;;;;;;4994607;28;20216;-38
2021/03/11 05:50:04;;;;;;;14.77;10.35;;;7.90;90.40;;;;;;4994947;28;20309;-38
2021/03/11 05:52:31;;;;;;;10.93;7.63;;;8.00;90.30;;;;;;4994858;28;20285;-38
2021/03/11 05:54:59;;;;;;;11.90;8.07;;;8.00;90.20;;;;;;4994508;28;20256;-39
2021/03/11 05:57:39;;;;;;;9.60;7.18;;;8.10;90.40;;;;;;4994643;28;20210;-38
2021/03/11 06:00:08;;;;;;;8.80;6.63;;;8.10;90.40;;;;;;4994396;28;20225;-38
2021/03/11 06:02:35;;;;;;;13.68;8.52;;;8.10;90.60;;;;;;4994644;28;20242;-38
2021/03/11 06:05:04;;;;;;;7.40;6.60;;;8.10;90.90;;;;;;4994606;28;20301;-38
2021/03/11 06:07:34;;;;;;;10.48;6.18;;;8.10;91.20;;;;;;5029195;28;20240;-39
2021/03/11 06:10:03;;;;;;;11.75;7.07;;;8.10;91.30;;;;;;5033750;28;20742;-40
2021/03/11 06:12:31;;;;;;;11.20;7.70;;;8.10;91.50;;;;;;5032471;28;20630;-39
2021/03/11 06:15:04;;;;;;;9.00;7.15;;;8.10;91.70;;;;;;5033612;28;20212;-39
2021/03/11 06:17:34;;;;;;;29.77;20.05;;;8.20;91.90;;;;;;5033821;28;20213;-40
2021/03/11 06:20:01;;;;;;;8.07;6.57;;;8.20;92.00;;;;;;5033551;28;20329;-37
2021/03/11 06:22:29;;;;;;;8.63;7.00;;;8.20;92.00;;;;;;5033516;28;20209;-40
2021/03/11 06:24:56;;;;;;;8.07;6.93;;;8.30;92.10;;;;;;5033240;28;20262;-37
2021/03/11 06:27:24;;;;;;;12.23;10.32;;;8.30;92.20;;;;;;5033323;28;20204;-38
2021/03/11 06:29:51;;;;;;;15.05;9.95;;;8.30;92.10;;;;;;5033431;28;20279;-39
2021/03/11 06:32:18;;;;;;;11.10;8.07;;;8.40;92.00;;;;;;5033205;28;20208;-39
2021/03/11 06:34:45;;;;;;;9.07;6.93;;;8.50;91.90;;;;;;5033170;28;20304;-40
2021/03/11 06:37:14;;;;;;;12.73;7.57;;;8.60;91.90;;;;;;5033085;28;20530;-40
2021/03/11 06:39:43;;;;;;;8.90;6.95;;;8.60;91.70;;;;;;5033117;28;20300;-40
2021/03/11 06:42:11;;;;;;;10.43;7.85;;;8.70;91.70;;;;;;5033978;28;20209;-39
2021/03/11 06:44:42;;;;;;;12.35;7.85;;;8.80;91.90;;;;;;5033456;28;20211;-38
2021/03/11 06:47:10;;;;;;;10.05;7.43;;;8.80;92.20;;;;;;5033343;28;20205;-38
2021/03/11 06:49:56;;;;;;;10.23;7.35;;;8.80;92.70;;;;;;5034880;28;20601;-39
2021/03/11 06:52:23;;;;;;;12.77;8.05;;;8.80;93.50;;;;;;5033010;28;20204;-41
2021/03/11 06:54:52;;;;;;;10.45;8.20;;;8.70;93.50;;;;;;5032931;28;20217;-39
2021/03/11 06:57:41;;;;;;;12.65;8.60;;;8.70;94.50;;;;;;5032601;28;20216;-39
2021/03/11 07:00:17;;;;;;;11.68;9.00;;;8.70;95.30;;;;;;5029241;28;20224;-39
2021/03/11 07:02:51;;;;;;;11.05;8.07;;;8.60;96.00;;;;;;5032457;28;20209;-39
2021/03/11 07:05:20;;;;;;;12.38;9.82;;;8.50;97.40;;;;;;5032352;28;20208;-39
2021/03/11 07:08:03;;;;;;;13.15;9.50;;;8.40;98.50;;;;;;5032317;28;20254;-39
2021/03/11 07:10:32;;;;;;;15.35;9.95;;;8.20;99.90;;;;;;5032357;28;20282;-39
2021/03/11 07:13:01;;;;;;;12.63;10.07;;;8.00;99.90;;;;;;5032572;28;20216;-39
2021/03/11 07:15:30;;;;;;;18.38;13.07;;;7.90;99.90;;;;;;5032310;28;20205;-39
2021/03/11 07:17:58;;;;;;;10.68;8.68;;;7.80;99.90;;;;;;5032347;28;20286;-38
2021/03/11 07:20:26;;;;;;;13.52;10.40;;;7.80;99.90;;;;;;5032110;28;20240;-39
2021/03/11 07:23:11;;;;;;;10.80;9.05;;;7.90;99.90;;;;;;5032001;28;20274;-38
2021/03/11 07:25:40;;;;;;;10.95;7.13;;;7.90;99.90;;;;;;5031779;28;20262;-38
2021/03/11 07:28:09;;;;;;;16.23;11.13;;;8.00;99.90;;;;;;5031746;28;20300;-39
2021/03/11 07:30:49;;;;;;;11.80;8.00;;;8.00;99.90;;;;;;5032134;28;20711;-39
2021/03/11 07:33:18;;;;;;;8.80;7.60;;;8.10;99.90;;;;;;5032233;28;20213;-39
2021/03/11 07:35:46;;;;;;;8.93;7.28;;;8.20;99.90;;;;;;5031870;28;20463;-39
2021/03/11 07:38:17;;;;;;;8.02;6.50;;;8.20;99.90;;;;;;5031525;28;20209;-38
2021/03/11 07:40:47;;;;;;;10.90;8.38;;;8.30;99.90;;;;;;5031745;28;20319;-39
2021/03/11 07:43:14;;;;;;;9.35;7.72;;;8.30;99.90;;;;;;5031922;28;20296;-39
2021/03/11 07:45:42;;;;;;;10.77;7.82;;;8.40;99.90;;;;;;5031568;28;20295;-38
2021/03/11 07:48:10;;;;;;;7.50;6.38;;;8.40;99.90;;;;;;5031478;28;20209;-38
2021/03/11 07:50:38;;;;;;;9.77;7.60;;;8.50;99.90;;;;;;5031592;28;20208;-40
2021/03/11 07:53:07;;;;;;;8.20;6.13;;;8.60;99.90;;;;;;5031619;28;20205;-39
2021/03/11 07:55:34;;;;;;;7.25;6.43;;;8.60;99.90;;;;;;5031660;28;20267;-39
2021/03/11 07:58:05;;;;;;;10.63;6.65;;;8.60;99.90;;;;;;5031590;28;20247;-40
2021/03/11 08:00:32;;;;;;;9.88;6.65;;;8.70;99.90;;;;;;5031534;28;20228;-39
2021/03/11 08:03:06;;;;;;;6.72;6.05;;;8.70;99.90;;;;;;5031678;28;20706;-39
2021/03/11 08:05:34;;;;;;;8.18;7.03;;;8.80;99.90;;;;;;5031676;28;20226;-39
2021/03/11 08:08:14;;;;;;;7.43;6.28;;;8.90;99.90;;;;;;5031858;28;20221;-40
2021/03/11 08:10:48;;;;;;;8.43;5.93;;;8.90;99.90;;;;;;5031802;28;20244;-39
2021/03/11 08:13:33;;;;;;;7.53;6.35;;;9.00;99.90;;;;;;5032425;28;20248;-39
2021/03/11 08:16:20;;;;;;;8.63;6.88;;;9.00;99.90;;;;;;5031719;28;20300;-40
2021/03/11 08:18:48;;;;;;;8.70;6.75;;;9.00;99.90;;;;;;5031607;28;20209;-39
2021/03/11 08:21:42;;;;;;;9.60;6.90;;;9.00;99.90;;;;;;5031585;28;20232;-39
2021/03/11 08:24:40;;;;;;;10.55;6.97;;;9.10;99.90;;;;;;5026412;28;20679;-40
2021/03/11 08:27:37;;;;;;;6.85;5.18;;;9.20;99.90;;;;;;5027929;28;20231;-40
2021/03/11 08:30:27;;;;;;;7.10;6.32;;;9.20;99.90;;;;;;5008450;28;20227;-39
2021/03/11 08:32:55;;;;;;;10.10;6.68;;;9.20;99.90;;;;;;5031281;28;20204;-41
2021/03/11 08:35:35;;;;;;;6.68;5.40;;;9.30;99.90;;;;;;5031596;28;20217;-39
2021/03/11 08:38:38;;;;;;;7.70;5.75;;;9.30;99.90;;;;;;5035468;28;20211;-39
2021/03/11 08:41:07;;;;;;;7.30;5.63;;;9.40;99.70;;;;;;5035854;28;20231;-39
2021/03/11 08:43:51;;;;;;;6.35;5.60;;;9.40;99.60;;;;;;5035391;28;20212;-40
2021/03/11 08:46:21;;;;;;;6.13;5.53;;;9.40;99.20;;;;;;5035780;28;20288;-40
2021/03/11 08:48:50;;;;;;;6.00;5.38;;;9.40;99.40;;;;;;5035069;28;20667;-39
2021/03/11 08:51:37;;;;;;;9.30;5.25;;;9.40;99.10;;;;;;5035109;28;20291;-40
2021/03/11 08:54:09;;;;;;;6.28;5.68;;;9.50;98.70;;;;;;5035033;28;20697;-40
2021/03/11 08:56:45;;;;;;;6.88;5.85;;;9.50;98.50;;;;;;5034936;28;20698;-39
2021/03/11 08:59:14;;;;;;;6.82;5.60;;;9.60;98.20;;;;;;5034778;28;20326;-38
2021/03/11 09:01:44;;;;;;;7.43;5.20;;;9.60;98.30;;;;;;5034752;28;20348;-38
2021/03/11 09:04:41;;;;;;;6.45;5.50;;;9.70;98.00;;;;;;5035063;28;20219;-40
2021/03/11 09:07:11;;;;;;;8.07;5.50;;;9.80;97.60;;;;;;5025415;28;20260;-46
2021/03/11 09:09:40;;;;;;;5.78;5.03;;;9.90;97.60;;;;;;5034575;28;20522;-40
2021/03/11 09:12:10;;;;;;;8.35;5.53;;;9.90;97.40;;;;;;5034893;28;20204;-39
2021/03/11 09:14:41;;;;;;;5.97;5.38;;;10.00;97.20;;;;;;5034956;28;20213;-39
2021/03/11 09:17:11;;;;;;;7.40;5.18;;;10.00;97.00;;;;;;5034588;28;20213;-39
2021/03/11 09:19:44;;;;;;;5.85;4.85;;;10.00;96.80;;;;;;5035020;28;20614;-38
2021/03/11 09:22:19;;;;;;;6.88;4.85;;;10.10;96.60;;;;;;5034822;28;20287;-37
2021/03/11 09:25:04;;;;;;;8.20;5.13;;;10.10;96.50;;;;;;5034712;28;20208;-37
2021/03/11 09:27:33;;;;;;;6.78;5.53;;;10.20;96.10;;;;;;5034498;28;20220;-38
2021/03/11 09:30:21;;;;;;;5.72;5.13;;;10.30;96.00;;;;;;5034184;28;20204;-38
2021/03/11 09:32:49;;;;;;;5.45;4.95;;;10.50;95.70;;;;;;5034216;28;20632;-38
2021/03/11 09:35:18;;;;;;;11.07;5.78;;;10.60;95.30;;;;;;5038660;28;20258;-38
2021/03/11 09:37:54;;;;;;;6.43;4.53;;;10.70;95.10;;;;;;5034185;28;20306;-39
2021/03/11 09:40:24;;;;;;;10.30;5.43;;;10.80;94.70;;;;;;5036502;28;20266;-38
2021/03/11 09:43:10;;;;;;;5.88;4.43;;;10.90;94.30;;;;;;5035774;28;20215;-39
2021/03/11 09:45:40;;;;;;;5.45;4.45;;;11.00;93.80;;;;;;5034395;28;20278;-40
2021/03/11 09:48:11;;;;;;;5.32;4.47;;;11.10;93.70;;;;;;5033812;28;20287;-39
2021/03/11 09:50:41;;;;;;;5.93;3.95;;;11.10;93.30;;;;;;5034004;28;20224;-40
2021/03/11 09:53:08;;;;;;;4.97;4.05;;;11.30;93.60;;;;;;5033812;28;20299;-39
2021/03/11 09:55:35;;;;;;;7.25;5.47;;;11.40;93.30;;;;;;5034036;28;20312;-39
2021/03/11 09:58:03;;;;;;;7.78;4.70;;;11.40;93.10;;;;;;5033697;28;20213;-39
2021/03/11 10:00:43;;;;;;;5.93;4.68;;;11.50;93.00;;;;;;5033052;28;20264;-38
2021/03/11 10:03:20;;;;;;;5.38;4.13;;;11.60;92.80;;;;;;5033895;28;20663;-39
2021/03/11 10:05:52;;;;;;;6.55;3.95;;;11.80;92.60;;;;;;5033194;28;20335;-40
2021/03/11 10:08:28;;;;;;;9.73;4.43;;;11.90;92.40;;;;;;5033921;28;20240;-39
2021/03/11 10:11:04;;;;;;;4.45;4.05;;;12.00;92.40;;;;;;5033683;28;20292;-39
2021/03/11 10:13:50;;;;;;;7.05;4.68;;;12.10;92.20;;;;;;5033475;28;20215;-39
2021/03/11 10:16:38;;;;;;;8.82;4.03;;;12.20;91.90;;;;;;5033182;28;20213;-39
2021/03/11 10:19:09;;;;;;;6.93;4.03;;;12.30;92.00;;;;;;5033412;28;20219;-40
2021/03/11 10:21:51;;;;;;;6.30;3.78;;;12.50;91.70;;;;;;5033141;28;20734;-40
2021/03/11 10:24:48;;;;;;;4.22;3.67;;;12.60;91.50;;;;;;5033227;28;20263;-40
2021/03/11 10:27:22;;;;;;;5.55;3.28;;;12.80;91.30;;;;;;5010559;28;20266;-40
2021/03/11 10:30:03;;;;;;;4.50;2.92;;;12.80;91.30;;;;;;5033127;28;20286;-40
2021/03/11 10:32:30;;;;;;;6.03;3.53;;;12.90;91.00;;;;;;5033136;28;20291;-40
2021/03/11 10:34:58;;;;;;;7.05;4.45;;;13.00;91.30;;;;;;5032924;28;20204;-39
2021/03/11 10:37:26;;;;;;;7.18;3.47;;;13.20;90.90;;;;;;5032563;28;20223;-39
2021/03/11 10:39:55;;;;;;;5.93;3.20;;;13.30;90.50;;;;;;5033478;28;20213;-39
2021/03/11 10:42:22;;;;;;;3.65;2.83;;;13.50;90.40;;;;;;5032819;28;20647;-40
2021/03/11 10:44:58;;;;;;;9.10;3.47;;;13.70;90.20;;;;;;5033171;28;20298;-39
2021/03/11 10:47:26;;;;;;;3.90;2.95;;;13.90;89.50;;;;;;5032773;28;20208;-40
2021/03/11 10:49:53;;;;;;;3.33;2.80;;;14.10;89.60;;;;;;5032466;28;20737;-40
2021/03/11 10:52:22;;;;;;;8.60;4.40;;;14.30;89.00;;;;;;5032830;28;20246;-40
2021/03/11 10:54:49;;;;;;;3.30;2.42;;;14.50;88.60;;;;;;5032503;28;20240;-39
2021/03/11 10:57:19;;;;;;;2.15;1.95;;;14.60;88.30;;;;;;5032209;28;20215;-40
2021/03/11 10:59:48;;;;;;;5.35;2.78;;;14.80;88.10;;;;;;5031856;28;20221;-40
2021/03/11 11:02:15;;;;;;;3.75;2.70;;;15.00;87.50;;;;;;5032510;28;20225;-38
2021/03/11 11:04:43;;;;;;;4.10;2.70;;;15.10;87.00;;;;;;5032368;28;20211;-41
2021/03/11 11:07:10;;;;;;;3.90;3.47;;;15.10;86.50;;;;;;5032231;28;20273;-39
2021/03/11 11:09:39;;;;;;;3.60;2.30;;;15.20;86.40;;;;;;5032166;28;20664;-39
2021/03/11 11:12:08;;;;;;;2.92;2.25;;;15.20;85.90;;;;;;5032126;28;20259;-39
2021/03/11 11:14:37;;;;;;;3.42;2.45;;;15.20;85.60;;;;;;5032332;28;20573;-38
2021/03/11 11:17:04;;;;;;;4.80;2.97;;;15.30;85.80;;;;;;5032006;28;20241;-38
2021/03/11 11:19:31;;;;;;;3.25;2.95;;;15.30;85.80;;;;;;5032083;28;20623;-38
2021/03/11 11:22:00;;;;;;;5.07;2.38;;;15.50;85.10;;;;;;5032048;28;20240;-39
2021/03/11 11:24:27;;;;;;;3.33;2.97;;;15.70;84.80;;;;;;5032178;28;20634;-38
2021/03/11 11:26:59;;;;;;;3.78;2.70;;;15.70;84.60;;;;;;5032022;28;20209;-39
2021/03/11 11:29:27;;;;;;;4.88;2.70;;;15.70;84.40;;;;;;5032131;28;20303;-38
2021/03/11 11:31:54;;;;;;;3.95;2.33;;;15.70;84.10;;;;;;5032022;28;20248;-39
2021/03/11 11:34:22;;;;;;;4.07;2.78;;;15.70;84.00;;;;;;5032124;28;20470;-39
2021/03/11 11:36:49;;;;;;;3.25;2.58;;;15.70;83.80;;;;;;5031938;28;20237;-38
2021/03/11 11:39:16;;;;;;;3.28;2.28;;;15.70;83.80;;;;;;5031791;28;20266;-39
2021/03/11 11:41:44;;;;;;;8.93;2.90;;;15.60;83.60;;;;;;5031575;28;20224;-38
2021/03/11 11:44:12;;;;;;;5.32;3.03;;;15.60;83.90;;;;;;5031669;28;20216;-38
2021/03/11 11:46:40;;;;;;;3.42;2.90;;;15.60;83.90;;;;;;5031559;28;20230;-39
2021/03/11 11:49:07;;;;;;;2.72;2.53;;;15.70;83.90;;;;;;5031732;28;20209;-38
2021/03/11 11:51:36;;;;;;;5.80;2.83;;;15.80;83.60;;;;;;5031748;28;20300;-38
2021/03/11 11:54:04;;;;;;;3.97;2.88;;;15.90;83.20;;;;;;5031813;28;20216;-38
2021/03/11 11:56:31;;;;;;;3.03;2.75;;;16.00;83.10;;;;;;5031630;28;20713;-38
2021/03/11 11:58:59;;;;;;;6.22;3.38;;;16.10;82.50;;;;;;5031702;28;20662;-39
2021/03/11 12:01:27;;;;;;;8.75;4.50;;;16.20;82.30;;;;;;5031548;28;20315;-38
2021/03/11 12:03:54;;;;;;;2.42;2.15;;;16.20;81.70;;;;;;5031501;28;20245;-38
2021/03/11 12:06:21;;;;;;;3.20;2.47;;;16.20;81.40;;;;;;5031654;28;20777;-38
2021/03/11 12:08:48;;;;;;;7.40;2.95;;;16.20;81.50;;;;;;5031818;28;20208;-38
2021/03/11 12:11:15;;;;;;;2.65;2.17;;;16.30;81.20;;;;;;5034089;28;20306;-38
2021/03/11 12:13:42;;;;;;;7.55;3.42;;;16.40;80.70;;;;;;5036047;28;20215;-39
2021/03/11 12:16:09;;;;;;;3.47;3.17;;;16.40;80.90;;;;;;5035737;28;20637;-39
2021/03/11 12:18:38;;;;;;;8.05;4.45;;;16.40;80.60;;;;;;5035934;28;20216;-39
2021/03/11 12:21:06;;;;;;;3.95;3.42;;;16.40;80.60;;;;;;5035716;28;20237;-38
2021/03/11 12:23:35;;;;;;;5.50;2.38;;;16.30;80.80;;;;;;5035807;28;20216;-39
2021/03/11 12:26:01;;;;;;;3.55;2.85;;;16.40;80.90;;;;;;5035692;28;20345;-38
2021/03/11 12:28:29;;;;;;;2.42;2.22;;;16.50;80.70;;;;;;5035313;28;20667;-38
2021/03/11 12:30:56;;;;;;;3.90;2.35;;;16.60;80.40;;;;;;5035406;28;20208;-39
2021/03/11 12:33:25;;;;;;;5.18;1.73;;;16.70;80.10;;;;;;5035868;28;20208;-39
2021/03/11 12:35:53;;;;;;;2.42;2.22;;;16.60;80.10;;;;;;5035146;28;20278;-39
2021/03/11 12:38:20;;;;;;;5.15;2.03;;;16.60;80.30;;;;;;5035320;28;20303;-38
2021/03/11 12:40:48;;;;;;;3.47;2.38;;;16.50;80.40;;;;;;5035418;28;20254;-39
2021/03/11 12:43:15;;;;;;;6.05;3.75;;;16.50;80.70;;;;;;5035108;28;20643;-39
2021/03/11 12:45:57;;;;;;;2.40;2.08;;;16.40;81.20;;;;;;5035052;28;20274;-38
2021/03/11 12:48:24;;;;;;;3.20;2.20;;;16.30;81.50;;;;;;5035621;28;20210;-39
2021/03/11 12:50:52;;;;;;;4.72;1.85;;;16.20;81.90;;;;;;5034658;28;20284;-39
2021/03/11 12:53:21;;;;;;;2.38;1.77;;;16.00;82.50;;;;;;5035059;28;20212;-40
2021/03/11 12:55:48;;;;;;;4.07;1.73;;;15.80;83.20;;;;;;5035382;28;20315;-39
2021/03/11 12:58:16;;;;;;;2.75;2.03;;;15.70;83.80;;;;;;5034783;28;20356;-39
2021/03/11 13:00:43;;;;;;;2.15;1.80;;;15.60;84.30;;;;;;5034980;28;20219;-39
2021/03/11 13:03:10;;;;;;;1.77;1.50;;;15.50;84.80;;;;;;5034609;28;20228;-39
2021/03/11 13:05:37;;;;;;;3.28;1.77;;;15.50;85.10;;;;;;5034393;28;20209;-39
2021/03/11 13:08:06;;;;;;;3.10;1.75;;;15.50;85.30;;;;;;5034743;28;20258;-40